Time;durP1;ratioP1;P1;durP2;ratioP2;P2;SDS_P1;SDS_P2;PMS_P1;PMS_P2;Temp;Humidity;BMP_temperature;BMP_pressure;BME280_temperature;BME280_humidity;BME280_pressure;Samples;Min_cycle;Max_cycle;Signal;HPM_P1;HPM_P2
2024/02/24 00:01:30;;;;;;;4.82;1.08;;;;;;;4.44;100.00;98263.34;5006992;28;20044;-72
2024/02/24 00:03:55;;;;;;;4.38;1.50;;;;;;;4.59;100.00;98321.50;5004061;28;20038;-75
2024/02/24 00:06:20;;;;;;;3.33;1.63;;;;;;;4.62;100.00;98298.16;5005559;28;20405;-74
2024/02/24 00:08:46;;;;;;;4.20;1.73;;;;;;;4.58;100.00;98298.69;5005376;28;20277;-75
2024/02/24 00:11:11;;;;;;;5.13;1.50;;;;;;;4.52;100.00;98289.69;5003757;28;20608;-76
2024/02/24 00:13:37;;;;;;;4.20;1.73;;;;;;;4.40;100.00;98270.00;5005459;28;20061;-74
2024/02/24 00:16:06;;;;;;;5.18;1.20;;;;;;;4.39;100.00;98295.59;4999448;28;20045;-76
2024/02/24 00:18:31;;;;;;;6.82;1.90;;;;;;;4.53;100.00;98309.81;5005347;28;20038;-75
2024/02/24 00:20:57;;;;;;;1.98;0.90;;;;;;;4.67;100.00;98317.94;5006808;28;20040;-73
2024/02/24 00:23:23;;;;;;;7.07;1.70;;;;;;;4.48;100.00;98217.06;4978695;28;20026;-73
2024/02/24 00:25:49;;;;;;;6.95;1.70;;;;;;;4.48;100.00;98250.63;5006523;28;20042;-72
2024/02/24 00:28:14;;;;;;;6.13;1.48;;;;;;;4.39;100.00;98249.88;5006613;28;20030;-76
2024/02/24 00:30:40;;;;;;;3.58;1.25;;;;;;;4.35;100.00;98256.53;5006572;28;20029;-76
2024/02/24 00:33:05;;;;;;;14.37;1.70;;;;;;;4.30;100.00;98258.91;5006688;28;20392;-74
2024/02/24 00:35:30;;;;;;;2.40;1.40;;;;;;;4.52;100.00;98291.50;5006327;28;20094;-72
2024/02/24 00:37:56;;;;;;;4.75;1.60;;;;;;;4.46;100.00;98273.75;5006430;28;20293;-72
2024/02/24 00:40:22;;;;;;;5.30;1.48;;;;;;;4.47;100.00;98273.53;5005289;28;20033;-73
2024/02/24 00:42:47;;;;;;;4.47;1.42;;;;;;;4.37;100.00;98236.03;5006473;28;20118;-75
2024/02/24 00:45:13;;;;;;;2.70;1.85;;;;;;;4.30;100.00;98240.41;5006239;28;20089;-72
2024/02/24 00:47:38;;;;;;;5.90;2.28;;;;;;;4.33;100.00;98258.53;5005125;28;20025;-73
2024/02/24 00:50:04;;;;;;;7.70;2.00;;;;;;;4.29;100.00;98257.28;4999563;28;20092;-72
2024/02/24 00:52:32;;;;;;;6.72;1.60;;;;;;;4.35;100.00;98256.53;5004169;28;20038;-77
2024/02/24 00:54:57;;;;;;;4.85;1.73;;;;;;;4.31;100.00;98257.88;5006093;28;20033;-72
2024/02/24 00:57:24;;;;;;;5.13;1.75;;;;;;;4.47;100.00;98260.34;5005954;28;20038;-72
2024/02/24 00:59:50;;;;;;;4.13;1.75;;;;;;;4.40;100.00;98222.44;5001443;28;20749;-75
2024/02/24 01:02:15;;;;;;;3.33;1.80;;;;;;;4.35;100.00;98246.78;5003541;28;20018;-74
2024/02/24 01:04:41;;;;;;;5.68;2.05;;;;;;;4.29;100.00;98273.94;5004946;28;20040;-72
2024/02/24 01:07:07;;;;;;;5.43;1.95;;;;;;;4.21;100.00;98256.38;5006208;28;20073;-73
2024/02/24 01:09:33;;;;;;;3.63;1.50;;;;;;;4.33;100.00;98287.59;4997115;28;20033;-72
2024/02/24 01:11:58;;;;;;;3.38;1.40;;;;;;;4.29;100.00;98263.38;5003609;28;20412;-73
2024/02/24 01:14:24;;;;;;;3.00;1.33;;;;;;;4.28;100.00;98255.63;4998000;28;20064;-72
2024/02/24 01:16:49;;;;;;;8.38;1.85;;;;;;;4.28;100.00;98256.44;4996223;28;20486;-72
2024/02/24 01:19:15;;;;;;;4.72;1.80;;;;;;;4.25;100.00;98237.50;5000561;28;20034;-73
2024/02/24 01:21:41;;;;;;;3.80;1.40;;;;;;;4.31;100.00;98276.38;5006264;28;20600;-75
2024/02/24 01:24:07;;;;;;;6.45;2.63;;;;;;;4.04;100.00;98220.56;5000336;28;20276;-72
2024/02/24 01:26:32;;;;;;;6.60;2.00;;;;;;;3.99;100.00;98304.78;5004976;28;20038;-75
2024/02/24 01:28:57;;;;;;;4.87;2.00;;;;;;;4.00;100.00;98365.34;5006282;28;20040;-72
2024/02/24 01:31:23;;;;;;;9.43;2.00;;;;;;;4.01;100.00;98403.94;5005026;28;20756;-73
2024/02/24 01:33:48;;;;;;;3.58;1.50;;;;;;;4.17;100.00;98413.56;4989766;28;20038;-72
2024/02/24 01:36:14;;;;;;;2.97;1.70;;;;;;;4.21;100.00;98377.88;5000187;28;20528;-72
2024/02/24 01:38:39;;;;;;;5.18;1.85;;;;;;;4.11;100.00;98350.88;5003856;28;20045;-72
2024/02/24 01:41:05;;;;;;;9.80;1.80;;;;;;;3.89;100.00;98333.28;5002481;28;20282;-73
2024/02/24 01:43:32;;;;;;;5.40;2.55;;;;;;;3.97;100.00;98386.81;5002419;28;20288;-72
2024/02/24 01:45:58;;;;;;;5.22;1.65;;;;;;;3.75;100.00;98340.16;4997074;28;20392;-73
2024/02/24 01:48:24;;;;;;;5.97;2.28;;;;;;;3.85;100.00;98390.06;5005896;28;20041;-72
2024/02/24 01:50:49;;;;;;;3.28;1.48;;;;;;;3.87;100.00;98401.25;5004601;28;20109;-75
2024/02/24 01:53:19;;;;;;;3.55;1.55;;;;;;;3.94;100.00;98424.13;5016338;28;20052;-74
2024/02/24 01:55:44;;;;;;;4.60;1.35;;;;;;;3.82;100.00;98367.47;5005698;28;20042;-73
2024/02/24 01:58:12;;;;;;;3.95;1.20;;;;;;;4.02;100.00;98405.56;5002191;28;20044;-73
2024/02/24 02:00:37;;;;;;;4.20;1.30;;;;;;;3.92;100.00;98327.63;5005770;28;20075;-73
2024/02/24 02:03:03;;;;;;;6.50;1.60;;;;;;;3.98;100.00;98350.66;5008639;28;20034;-73
2024/02/24 02:05:29;;;;;;;8.35;1.83;;;;;;;4.03;100.00;98364.16;5009629;28;20603;-73
2024/02/24 02:07:55;;;;;;;8.40;1.50;;;;;;;4.07;100.00;98336.38;5009654;28;20034;-74
2024/02/24 02:10:20;;;;;;;8.00;1.90;;;;;;;3.93;100.00;98334.53;5014196;28;20667;-73
2024/02/24 02:12:46;;;;;;;4.35;1.58;;;;;;;3.88;100.00;98355.38;5003633;28;20080;-72
2024/02/24 02:15:11;;;;;;;9.27;1.55;;;;;;;3.93;100.00;98397.91;5009497;28;20037;-73
2024/02/24 02:17:38;;;;;;;5.65;1.80;;;;;;;4.00;100.00;98427.88;5007240;28;20046;-72
2024/02/24 02:20:03;;;;;;;;;;;;;;;3.93;100.00;98388.19;4999632;28;20525;-72
2024/02/24 02:22:30;;;;;;;3.15;1.30;;;;;;;3.78;100.00;98380.19;5007436;28;20276;-74
2024/02/24 02:24:55;;;;;;;7.00;1.50;;;;;;;3.88;100.00;98440.66;5007821;28;20037;-72
2024/02/24 02:27:20;;;;;;;7.10;1.58;;;;;;;3.81;100.00;98395.66;5009252;28;20115;-76
2024/02/24 02:29:46;;;;;;;4.55;1.60;;;;;;;3.80;100.00;98433.63;5007968;28;20065;-72
2024/02/24 02:32:11;;;;;;;8.02;2.22;;;;;;;3.71;100.00;98418.84;5009315;28;20025;-72
2024/02/24 02:34:37;;;;;;;8.68;2.45;;;;;;;3.59;100.00;98423.69;5009035;28;20105;-74
2024/02/24 02:37:02;;;;;;;5.63;2.08;;;;;;;3.68;100.00;98487.81;5009304;28;20029;-72
2024/02/24 02:39:28;;;;;;;4.78;1.30;;;;;;;3.77;100.00;98497.34;5024426;28;20034;-72
2024/02/24 02:41:53;;;;;;;5.50;1.50;;;;;;;3.74;100.00;98476.53;5003490;28;20342;-73
2024/02/24 02:44:18;;;;;;;2.37;1.23;;;;;;;3.67;100.00;98486.16;5009097;28;20312;-72
2024/02/24 02:46:48;;;;;;;6.55;1.65;;;;;;;3.55;100.00;98467.25;4992686;28;20042;-73
2024/02/24 02:49:15;;;;;;;4.07;1.73;;;;;;;3.66;100.00;98496.91;5003089;28;20083;-72
2024/02/24 02:51:40;;;;;;;7.28;2.15;;;;;;;3.81;100.00;98518.91;5003110;28;20021;-72
2024/02/24 02:54:06;;;;;;;4.10;1.25;;;;;;;3.73;100.00;98492.56;5004528;28;20030;-74
2024/02/24 02:56:31;;;;;;;3.25;1.38;;;;;;;3.72;100.00;98520.78;5003530;28;20065;-73
2024/02/24 02:58:57;;;;;;;3.97;2.17;;;;;;;3.64;100.00;98498.88;5008622;28;20105;-72
2024/02/24 03:01:22;;;;;;;5.93;1.90;;;;;;;3.51;100.00;98502.06;5008508;28;20397;-73
2024/02/24 03:03:48;;;;;;;4.97;1.75;;;;;;;3.44;100.00;98540.69;5008602;28;20387;-72
2024/02/24 03:06:13;;;;;;;3.17;1.40;;;;;;;3.46;100.00;98562.44;5008428;28;20379;-74
2024/02/24 03:08:39;;;;;;;2.97;1.50;;;;;;;3.41;100.00;98596.44;5006054;28;20032;-72
2024/02/24 03:11:04;;;;;;;12.35;2.47;;;;;;;3.43;100.00;98599.72;5003751;28;20109;-76
2024/02/24 03:13:30;;;;;;;5.60;1.58;;;;;;;3.28;100.00;98576.69;5001807;28;20063;-73
2024/02/24 03:15:55;;;;;;;3.15;1.58;;;;;;;3.43;100.00;98613.72;4990995;28;20398;-73
2024/02/24 03:18:21;;;;;;;4.03;2.03;;;;;;;3.27;100.00;98600.56;5003844;28;20079;-72
2024/02/24 03:20:47;;;;;;;8.57;2.13;;;;;;;3.30;100.00;98647.72;5006591;28;20428;-73
2024/02/24 03:23:13;;;;;;;6.68;1.55;;;;;;;3.31;100.00;98660.75;5001861;28;20037;-72
2024/02/24 03:25:39;;;;;;;3.28;1.75;;;;;;;3.36;100.00;98660.25;5007871;28;20040;-75
2024/02/24 03:28:05;;;;;;;3.20;1.13;;;;;;;3.15;100.00;98616.75;5008251;28;20034;-76
2024/02/24 03:30:30;;;;;;;4.13;1.48;;;;;;;3.15;100.00;98677.41;5008188;28;20045;-73
2024/02/24 03:32:56;;;;;;;5.93;1.85;;;;;;;3.19;100.00;98677.91;5006903;28;20029;-73
2024/02/24 03:35:21;;;;;;;3.60;1.65;;;;;;;3.26;100.00;98704.44;5007815;28;20401;-72
2024/02/24 03:37:50;;;;;;;7.30;1.58;;;;;;;3.27;100.00;98690.25;5007941;28;20136;-73
2024/02/24 03:40:16;;;;;;;8.63;1.90;;;;;;;3.19;100.00;98672.63;5004344;28;20045;-72
2024/02/24 03:42:41;;;;;;;5.97;2.25;;;;;;;3.27;100.00;98696.34;5007951;28;20038;-72
2024/02/24 03:45:08;;;;;;;2.92;1.15;;;;;;;3.19;100.00;98683.19;5007765;28;20049;-73
2024/02/24 03:47:33;;;;;;;5.50;1.67;;;;;;;3.21;100.00;98709.34;5007954;28;20768;-72
2024/02/24 03:49:59;;;;;;;3.25;1.35;;;;;;;3.24;100.00;98719.59;5007934;28;20034;-76
2024/02/24 03:52:24;;;;;;;12.43;3.00;;;;;;;3.23;100.00;98704.75;5008016;28;20084;-75
2024/02/24 03:54:50;;;;;;;6.97;1.45;;;;;;;3.23;100.00;98710.88;5007357;28;20041;-75
2024/02/24 03:57:15;;;;;;;5.75;2.17;;;;;;;3.26;100.00;98693.88;5007840;28;20030;-72
2024/02/24 03:59:41;;;;;;;11.25;1.45;;;;;;;3.17;100.00;98680.69;5007730;28;20096;-72
2024/02/24 04:02:06;;;;;;;8.88;2.28;;;;;;;3.23;100.00;98689.78;5007897;28;20037;-72
2024/02/24 04:04:32;;;;;;;4.57;1.70;;;;;;;3.06;100.00;98682.84;5007337;28;20108;-72
2024/02/24 04:06:57;;;;;;;5.22;1.55;;;;;;;3.00;100.00;98701.94;4998214;28;20517;-73
2024/02/24 04:09:22;;;;;;;9.02;1.80;;;;;;;3.04;100.00;98737.53;5003577;28;20029;-72
2024/02/24 04:11:48;;;;;;;5.47;1.60;;;;;;;3.03;100.00;98720.91;5007445;28;20022;-72
2024/02/24 04:14:14;;;;;;;4.57;1.95;;;;;;;2.98;100.00;98725.84;5006086;28;20287;-72
2024/02/24 04:16:39;;;;;;;4.03;1.38;;;;;;;2.79;100.00;98708.53;5003032;28;20033;-75
2024/02/24 04:19:05;;;;;;;2.88;1.58;;;;;;;3.05;100.00;98776.94;5007463;28;20512;-73
2024/02/24 04:21:30;;;;;;;6.07;1.60;;;;;;;3.08;100.00;98744.16;5006039;28;20014;-72
2024/02/24 04:23:55;;;;;;;4.13;1.70;;;;;;;3.07;100.00;98745.16;4997769;28;20038;-73
2024/02/24 04:26:21;;;;;;;7.22;1.95;;;;;;;2.99;100.00;98713.47;5005688;28;20408;-72
2024/02/24 04:28:46;;;;;;;6.85;1.45;;;;;;;2.98;100.00;98740.84;5005031;28;20499;-73
2024/02/24 04:31:12;;;;;;;12.10;1.33;;;;;;;3.01;100.00;98753.69;5007005;28;20385;-72
2024/02/24 04:33:37;;;;;;;6.75;1.92;;;;;;;3.06;100.00;98751.38;5001352;28;20037;-72
2024/02/24 04:36:03;;;;;;;6.22;1.50;;;;;;;3.04;100.00;98754.19;5006631;28;20026;-74
2024/02/24 04:38:29;;;;;;;17.77;2.88;;;;;;;3.01;100.00;98732.59;5007366;28;20143;-75
2024/02/24 04:40:54;;;;;;;3.90;1.60;;;;;;;3.01;100.00;98722.06;5005554;28;20092;-75
2024/02/24 04:43:20;;;;;;;6.80;1.93;;;;;;;2.88;100.00;98704.06;5006798;28;20042;-72
2024/02/24 04:45:45;;;;;;;13.03;1.80;;;;;;;2.81;100.00;98740.81;5005042;28;20338;-72
2024/02/24 04:48:11;;;;;;;4.47;1.50;;;;;;;2.79;100.00;98761.22;5006798;28;20640;-72
2024/02/24 04:50:36;;;;;;;9.68;1.85;;;;;;;2.73;100.00;98785.59;5006847;28;20101;-72
2024/02/24 04:53:01;;;;;;;3.40;2.08;;;;;;;2.73;100.00;98786.41;4989272;28;20405;-71
2024/02/24 04:55:27;;;;;;;14.63;2.00;;;;;;;2.78;100.00;98807.00;5006123;28;20032;-72
2024/02/24 04:57:52;;;;;;;5.32;1.60;;;;;;;2.75;100.00;98805.50;5006545;28;20091;-72
2024/02/24 05:00:18;;;;;;;7.65;1.98;;;;;;;2.82;100.00;98802.25;5005460;28;20026;-72
2024/02/24 05:02:43;;;;;;;5.60;1.83;;;;;;;2.69;100.00;98787.72;5006633;28;20036;-72
2024/02/24 05:05:11;;;;;;;4.47;1.48;;;;;;;2.61;100.00;98797.41;4999527;28;20029;-72
2024/02/24 05:07:36;;;;;;;3.70;1.42;;;;;;;2.75;100.00;98834.50;5007493;28;20057;-72
2024/02/24 05:10:02;;;;;;;6.15;1.40;;;;;;;2.71;100.00;98827.91;5022428;28;20068;-72
2024/02/24 05:12:27;;;;;;;7.38;2.17;;;;;;;2.69;100.00;98823.78;5006908;28;20051;-72
2024/02/24 05:14:53;;;;;;;8.50;2.10;;;;;;;2.68;100.00;98837.94;5006161;28;20429;-72
2024/02/24 05:17:18;;;;;;;13.27;3.40;;;;;;;2.70;100.00;98841.25;5006362;28;20297;-72
2024/02/24 05:19:43;;;;;;;7.47;1.60;;;;;;;2.62;100.00;98838.56;5006230;28;20750;-72
2024/02/24 05:22:09;;;;;;;8.70;2.17;;;;;;;2.66;100.00;98843.38;5006434;28;20049;-74
2024/02/24 05:24:35;;;;;;;5.05;1.70;;;;;;;2.79;100.00;98885.09;5006167;28;20473;-72
2024/02/24 05:27:00;;;;;;;8.13;2.38;;;;;;;2.88;100.00;98878.88;5004913;28;20033;-73
2024/02/24 05:29:26;;;;;;;7.60;1.70;;;;;;;2.85;100.00;98859.91;5006280;28;20486;-72
2024/02/24 05:31:51;;;;;;;7.28;2.58;;;;;;;2.68;100.00;98816.88;5005213;28;20292;-72
2024/02/24 05:34:16;;;;;;;3.70;1.63;;;;;;;2.64;100.00;98841.88;5005844;28;20103;-74
2024/02/24 05:36:42;;;;;;;2.90;1.73;;;;;;;2.89;100.00;98875.25;5005313;28;20110;-72
2024/02/24 05:39:07;;;;;;;7.70;2.05;;;;;;;2.88;100.00;98841.13;5001879;28;20437;-71
2024/02/24 05:41:33;;;;;;;5.00;2.15;;;;;;;2.74;100.00;98832.06;5000497;28;20113;-74
2024/02/24 05:43:59;;;;;;;5.28;1.88;;;;;;;2.71;100.00;98827.06;4994671;28;20141;-74
2024/02/24 05:46:24;;;;;;;7.88;2.72;;;;;;;2.90;100.00;98871.66;5003069;28;20128;-77
2024/02/24 05:48:50;;;;;;;6.43;1.90;;;;;;;2.95;100.00;98847.44;5005512;28;20026;-76
2024/02/24 05:51:16;;;;;;;4.22;2.22;;;;;;;2.94;100.00;98848.41;5004679;28;20054;-73
2024/02/24 05:53:42;;;;;;;6.07;1.50;;;;;;;3.04;100.00;98850.91;5005581;28;20026;-73
2024/02/24 05:56:08;;;;;;;5.03;1.38;;;;;;;2.84;100.00;98822.19;5005444;28;20028;-73
2024/02/24 05:58:33;;;;;;;7.88;2.13;;;;;;;2.92;100.00;98855.66;4997675;28;20836;-74
2024/02/24 06:00:59;;;;;;;7.13;1.67;;;;;;;2.98;100.00;98839.22;5005206;28;20488;-73
2024/02/24 06:03:25;;;;;;;14.55;3.40;;;;;;;3.06;100.00;98856.84;5004465;28;20037;-75
2024/02/24 06:05:51;;;;;;;9.10;2.95;;;;;;;3.05;100.00;98847.31;5004262;28;20029;-72
2024/02/24 06:08:16;;;;;;;7.10;1.83;;;;;;;3.11;100.00;98847.50;5006589;28;20032;-71
2024/02/24 06:10:42;;;;;;;7.18;1.88;;;;;;;3.03;100.00;98830.81;4988696;28;20041;-72
2024/02/24 06:13:08;;;;;;;7.95;1.52;;;;;;;3.05;100.00;98856.03;5001492;28;20037;-72
2024/02/24 06:15:33;;;;;;;;;;;;;;;3.19;100.00;98865.13;5006343;28;20025;-73
2024/02/24 06:17:59;;;;;;;7.35;1.45;;;;;;;3.16;100.00;98860.16;5004702;28;19924;-72
2024/02/24 06:20:25;;;;;;;9.35;1.67;;;;;;;3.19;100.00;98856.41;5006372;28;20034;-71
2024/02/24 06:22:51;;;;;;;3.88;2.38;;;;;;;3.16;100.00;98839.06;5003598;28;20086;-74
2024/02/24 06:25:16;;;;;;;4.30;1.92;;;;;;;3.25;100.00;98861.84;4995376;28;20030;-74
2024/02/24 06:27:42;;;;;;;6.30;1.70;;;;;;;3.19;100.00;98849.31;5008269;28;20444;-74
2024/02/24 06:30:08;;;;;;;5.43;2.65;;;;;;;3.38;100.00;98835.81;4987242;28;20048;-75
2024/02/24 06:32:33;;;;;;;4.07;1.33;;;;;;;3.40;100.00;98811.91;5006369;28;20413;-75
2024/02/24 06:34:59;;;;;;;3.30;1.15;;;;;;;3.49;100.00;98800.38;5005354;28;20025;-75
2024/02/24 06:37:24;;;;;;;3.45;1.63;;;;;;;3.30;100.00;98754.06;5005032;28;20535;-76
2024/02/24 06:39:49;;;;;;;7.53;2.53;;;;;;;3.28;100.00;98795.59;5003802;28;20037;-73
2024/02/24 06:42:15;;;;;;;8.80;2.20;;;;;;;3.17;100.00;98778.25;5004102;28;20747;-72
2024/02/24 06:44:41;;;;;;;5.70;1.60;;;;;;;3.30;100.00;98827.91;5004413;28;20030;-77
2024/02/24 06:47:07;;;;;;;4.43;1.50;;;;;;;3.38;100.00;98825.28;4989624;28;20030;-73
2024/02/24 06:49:33;;;;;;;7.70;1.63;;;;;;;3.40;100.00;98821.66;5007559;28;20030;-72
2024/02/24 06:51:58;;;;;;;4.28;1.40;;;;;;;3.57;100.00;98805.66;5005620;28;20030;-74
2024/02/24 06:54:24;;;;;;;6.57;1.90;;;;;;;3.44;100.00;98738.53;5004002;28;20034;-74
2024/02/24 06:56:49;;;;;;;5.25;2.90;;;;;;;3.43;100.00;98752.72;5008121;28;20501;-77
2024/02/24 06:59:15;;;;;;;10.75;3.58;;;;;;;3.19;100.00;98750.91;5008084;28;20511;-75
2024/02/24 07:01:41;;;;;;;8.77;2.95;;;;;;;3.44;100.00;98788.66;5008471;28;20507;-75
2024/02/24 07:04:06;;;;;;;10.15;2.33;;;;;;;3.47;100.00;98769.88;5009353;28;20026;-73
2024/02/24 07:06:32;;;;;;;4.28;1.95;;;;;;;3.61;100.00;98803.53;5009039;28;20052;-72
2024/02/24 07:08:57;;;;;;;6.82;1.83;;;;;;;3.94;100.00;98787.66;4991939;28;20026;-73
2024/02/24 07:11:22;;;;;;;5.00;2.00;;;;;;;4.21;100.00;98774.06;5004604;28;20025;-74
2024/02/24 07:13:48;;;;;;;6.97;1.93;;;;;;;4.08;100.00;98670.75;5006833;28;20364;-72
2024/02/24 07:16:16;;;;;;;4.18;1.95;;;;;;;4.06;100.00;98616.47;5004731;28;20050;-72
2024/02/24 07:18:41;;;;;;;6.88;2.00;;;;;;;4.10;100.00;98626.53;5004145;28;20038;-78
2024/02/24 07:21:07;;;;;;;9.43;1.65;;;;;;;4.10;100.00;98597.47;5008108;28;20137;-74
2024/02/24 07:23:33;;;;;;;3.88;1.98;;;;;;;4.11;100.00;98611.50;5008255;28;20036;-73
2024/02/24 07:26:00;;;;;;;5.80;2.78;;;;;;;4.43;100.00;98621.06;5022884;28;20038;-72
2024/02/24 07:28:26;;;;;;;5.07;1.90;;;;;;;4.84;100.00;98626.03;5006600;28;20517;-72
2024/02/24 07:30:52;;;;;;;;;;;;;;;5.19;100.00;98576.16;5006677;28;20034;-72
2024/02/24 07:33:19;;;;;;;4.70;1.48;;;;;;;5.16;100.00;98444.25;5002686;28;19956;-73
2024/02/24 07:35:45;;;;;;;8.27;1.83;;;;;;;5.41;100.00;98442.94;5003047;28;20044;-75
2024/02/24 07:38:11;;;;;;;6.45;2.25;;;;;;;5.85;100.00;98428.75;4990228;28;20022;-74
2024/02/24 07:40:36;;;;;;;3.92;1.95;;;;;;;5.78;100.00;98262.88;5006337;28;20393;-72
2024/02/24 07:43:02;;;;;;;2.93;1.37;;;;;;;5.31;100.00;98220.16;5006005;28;20029;-72
2024/02/24 07:45:27;;;;;;;4.57;1.50;;;;;;;5.49;100.00;98293.81;5007379;28;20335;-73
2024/02/24 07:47:53;;;;;;;6.30;1.80;;;;;;;5.83;100.00;98277.19;5002786;28;20360;-73
2024/02/24 07:50:19;;;;;;;7.28;1.80;;;;;;;4.96;100.00;98121.38;5002552;28;20121;-76
2024/02/24 07:52:44;;;;;;;6.25;1.60;;;;;;;4.67;100.00;98191.06;5003144;28;20693;-75
2024/02/24 07:55:10;;;;;;;8.02;2.35;;;;;;;5.32;100.00;98377.09;5006192;28;20041;-74
2024/02/24 07:57:35;;;;;;;7.30;1.80;;;;;;;5.81;100.00;98310.97;5007240;28;20030;-73
2024/02/24 08:00:01;;;;;;;3.90;1.73;;;;;;;6.03;100.00;98187.28;5006900;28;20092;-72
2024/02/24 08:02:26;;;;;;;5.63;2.83;;;;;;;6.75;100.00;98273.44;4989905;28;20060;-73
2024/02/24 08:04:52;;;;;;;7.00;1.92;;;;;;;7.05;100.00;98137.84;5006887;28;20495;-73
2024/02/24 08:07:17;;;;;;;18.13;2.20;;;;;;;7.69;100.00;98042.59;5007829;28;20038;-73
2024/02/24 08:09:43;;;;;;;12.93;2.03;;;;;;;6.52;100.00;97793.97;5006399;28;20058;-73
2024/02/24 08:12:08;;;;;;;6.07;1.48;;;;;;;6.87;100.00;97898.94;4991415;28;21103;-73
2024/02/24 08:14:34;;;;;;;7.20;1.60;;;;;;;6.49;100.00;97854.56;5006304;28;20073;-77
2024/02/24 08:16:59;;;;;;;8.93;1.80;;;;;;;6.80;100.00;98044.78;5007598;28;20119;-73
2024/02/24 08:19:25;;;;;;;8.03;1.70;;;;;;;7.06;100.00;97984.78;5015789;28;20656;-73
2024/02/24 08:21:50;;;;;;;5.60;1.40;;;;;;;6.03;100.00;97903.09;5001018;28;20850;-73
2024/02/24 08:24:16;;;;;;;3.33;1.20;;;;;;;5.79;100.00;97984.69;5000612;28;20022;-72
2024/02/24 08:26:43;;;;;;;3.90;1.52;;;;;;;6.12;100.00;98142.91;5006335;28;20892;-73
2024/02/24 08:29:09;;;;;;;5.45;1.67;;;;;;;5.53;100.00;98082.53;5007813;28;20129;-73
2024/02/24 08:31:35;;;;;;;6.38;1.58;;;;;;;5.86;100.00;98350.13;5018122;28;20437;-73
2024/02/24 08:34:01;;;;;;;12.48;2.15;;;;;;;6.08;100.00;98267.00;5003988;28;20493;-73
2024/02/24 08:36:26;;;;;;;4.22;1.60;;;;;;;5.37;100.00;98150.59;5000482;28;20036;-73
2024/02/24 08:38:52;;;;;;;6.00;1.58;;;;;;;5.48;100.00;98348.56;5007404;28;20041;-74
2024/02/24 08:41:17;;;;;;;4.10;1.90;;;;;;;5.52;100.00;98342.88;5007312;28;20030;-73
2024/02/24 08:43:43;;;;;;;6.37;2.80;;;;;;;5.02;100.00;98277.47;5007663;28;20292;-73
2024/02/24 08:46:08;;;;;;;2.40;1.83;;;;;;;5.28;100.00;98459.47;5006240;28;20038;-74
2024/02/24 08:48:34;;;;;;;6.43;1.88;;;;;;;5.28;100.00;98442.78;5005045;28;20120;-75
2024/02/24 08:50:59;;;;;;;7.90;1.92;;;;;;;5.55;100.00;98491.56;5006421;28;20029;-74
2024/02/24 08:53:25;;;;;;;6.93;1.92;;;;;;;5.50;100.00;98476.25;5006738;28;20485;-73
2024/02/24 08:55:51;;;;;;;10.38;2.17;;;;;;;5.26;100.00;98386.56;4998029;28;20445;-76
2024/02/24 08:58:17;;;;;;;7.25;2.08;;;;;;;5.57;100.00;98541.66;5006009;28;20552;-72
2024/02/24 09:00:43;;;;;;;7.05;2.10;;;;;;;6.07;100.00;98588.56;5006313;28;20033;-73
2024/02/24 09:03:09;;;;;;;6.10;1.77;;;;;;;6.17;100.00;98484.91;5002806;28;20798;-75
2024/02/24 09:05:35;;;;;;;7.57;3.83;;;;;;;6.40;100.00;98412.34;4993379;28;20433;-75
2024/02/24 09:08:00;;;;;;;7.25;2.28;;;;;;;6.28;100.00;98287.50;5001991;28;20042;-73
2024/02/24 09:10:25;;;;;;;3.67;1.35;;;;;;;6.40;100.00;98287.78;5007317;28;20030;-73
2024/02/24 09:12:51;;;;;;;5.47;1.80;;;;;;;6.25;100.00;98299.31;5005431;28;20105;-73
2024/02/24 09:15:16;;;;;;;4.47;2.20;;;;;;;6.37;100.00;98349.09;5000633;28;20285;-74
2024/02/24 09:17:42;;;;;;;7.43;2.73;;;;;;;6.42;100.00;98338.75;5006477;28;20041;-73
2024/02/24 09:20:08;;;;;;;12.75;2.17;;;;;;;6.47;100.00;98349.59;5006498;28;20297;-72
2024/02/24 09:22:35;;;;;;;5.53;1.50;;;;;;;6.39;100.00;98337.31;5022203;28;20084;-77
2024/02/24 09:25:00;;;;;;;4.22;1.80;;;;;;;6.27;100.00;98363.50;4979128;28;20446;-72
2024/02/24 09:27:26;;;;;;;8.68;2.33;;;;;;;6.52;100.00;98469.94;4999118;28;20060;-73
2024/02/24 09:29:51;;;;;;;5.82;1.55;;;;;;;6.13;100.00;98340.59;5005885;28;20510;-73
2024/02/24 09:32:17;;;;;;;5.70;1.37;;;;;;;5.90;100.00;98414.97;5006082;28;20112;-72
2024/02/24 09:34:44;;;;;;;5.47;2.92;;;;;;;6.38;100.00;98631.69;5005660;28;20025;-75
2024/02/24 09:37:10;;;;;;;8.80;2.35;;;;;;;6.29;100.00;98544.34;5005683;28;20034;-74
2024/02/24 09:39:40;;;;;;;9.65;2.17;;;;;;;6.97;100.00;98822.47;5005978;28;20026;-72
2024/02/24 09:42:05;;;;;;;8.45;2.00;;;;;;;7.49;100.00;98791.38;5004711;28;20057;-75
2024/02/24 09:44:31;;;;;;;10.48;2.17;;;;;;;7.33;100.00;98447.38;5005830;28;20030;-73
2024/02/24 09:47:01;;;;;;;3.33;1.70;;;;;;;7.03;100.00;98314.16;4987957;28;20129;-73
2024/02/24 09:49:30;;;;;;;5.88;2.53;;;;;;;7.12;100.00;98281.94;4997730;28;20062;-73
2024/02/24 09:51:56;;;;;;;8.23;1.88;;;;;;;7.27;100.00;98220.72;5005478;28;20038;-75
2024/02/24 09:54:21;;;;;;;7.03;1.85;;;;;;;7.18;100.00;98164.38;5004305;28;20029;-72
2024/02/24 09:56:51;;;;;;;4.83;1.67;;;;;;;7.49;100.00;98271.81;5004483;28;20465;-77
2024/02/24 09:59:18;;;;;;;5.05;1.70;;;;;;;6.92;100.00;98106.81;5005700;28;20030;-72
2024/02/24 10:01:47;;;;;;;5.10;2.78;;;;;;;7.04;100.00;98209.66;5005585;28;20030;-72
2024/02/24 10:04:14;;;;;;;5.00;1.90;;;;;;;6.81;100.00;98287.75;5005673;28;20037;-72
2024/02/24 10:06:41;;;;;;;4.28;1.88;;;;;;;6.66;100.00;98250.78;4994870;28;20054;-77
2024/02/24 10:09:06;;;;;;;6.13;1.92;;;;;;;6.41;100.00;98382.16;4997542;28;20085;-73
2024/02/24 10:11:35;;;;;;;10.10;3.07;;;;;;;6.60;100.00;98492.00;4997950;28;20152;-76
2024/02/24 10:14:01;;;;;;;5.10;1.80;;;;;;;6.62;100.00;98569.53;4988192;28;20788;-73
2024/02/24 10:16:26;;;;;;;6.25;2.20;;;;;;;6.50;100.00;98495.00;5005539;28;20033;-73
2024/02/24 10:18:52;;;;;;;6.20;2.00;;;;;;;6.59;100.00;98568.09;5005461;28;20540;-75
2024/02/24 10:21:17;;;;;;;6.43;1.80;;;;;;;6.22;100.00;98518.78;5004984;28;20296;-73
2024/02/24 10:23:42;;;;;;;5.07;2.03;;;;;;;5.84;100.00;98572.75;5005816;28;20083;-73
2024/02/24 10:26:08;;;;;;;5.07;2.00;;;;;;;6.04;100.00;98691.41;5007748;28;20132;-74
2024/02/24 10:28:35;;;;;;;7.32;2.22;;;;;;;5.93;100.00;98629.91;5009207;28;20464;-75
2024/02/24 10:31:01;;;;;;;7.30;2.10;;;;;;;6.17;100.00;98690.75;5007784;28;20026;-73
2024/02/24 10:33:29;;;;;;;6.57;2.38;;;;;;;6.05;100.00;98708.97;4999543;28;20035;-74
2024/02/24 10:35:55;;;;;;;7.68;1.88;;;;;;;6.25;100.00;98852.31;4998757;28;20116;-73
2024/02/24 10:38:21;;;;;;;;;;;;;;;6.45;100.00;98837.53;5009302;28;20076;-72
2024/02/24 10:40:47;;;;;;;6.32;2.17;;;;;;;6.49;100.00;98864.50;5009013;28;19913;-75
2024/02/24 10:43:14;;;;;;;7.22;2.83;;;;;;;6.49;100.00;98867.97;5008997;28;20113;-73
2024/02/24 10:45:40;;;;;;;5.93;2.08;;;;;;;6.42;100.00;98912.13;5008655;28;20121;-73
2024/02/24 10:48:06;;;;;;;11.30;2.47;;;;;;;6.35;100.00;98908.53;4993708;28;20109;-73
2024/02/24 10:50:32;;;;;;;8.60;2.55;;;;;;;6.57;100.00;98880.31;5008724;28;20477;-73
2024/02/24 10:52:59;;;;;;;6.28;2.25;;;;;;;7.00;100.00;98866.38;5008273;28;20030;-73
2024/02/24 10:55:25;;;;;;;7.55;2.00;;;;;;;7.33;100.00;98740.19;4995217;28;20040;-75
2024/02/24 10:57:53;;;;;;;7.90;2.00;;;;;;;7.88;100.00;98752.88;4997028;28;20043;-73
2024/02/24 11:00:25;;;;;;;5.07;1.80;;;;;;;7.70;100.00;98533.72;5008533;28;20041;-72
2024/02/24 11:02:51;;;;;;;9.18;2.47;;;;;;;8.51;100.00;98582.66;5008558;28;20402;-75
2024/02/24 11:05:17;;;;;;;4.80;2.10;;;;;;;9.30;100.00;98433.56;5007121;28;20037;-75
2024/02/24 11:07:43;;;;;;;;;;;;;;;9.32;100.00;98140.47;5001770;28;20026;-74
2024/02/24 11:10:21;;;;;;;16.50;3.53;;;;;;;9.12;100.00;98025.34;5007835;28;19922;-73
2024/02/24 11:12:50;;;;;;;7.32;2.13;;;;;;;8.45;100.00;97869.00;5000150;28;20392;-73
2024/02/24 11:15:23;;;;;;;6.38;2.15;;;;;;;8.72;100.00;97994.59;5007633;28;20034;-73
2024/02/24 11:17:53;;;;;;;7.10;2.53;;;;;;;8.80;100.00;97954.41;5008003;28;20022;-76
2024/02/24 11:20:34;;;;;;;5.63;1.92;;;;;;;8.85;100.00;97940.47;5003795;28;20765;-76
2024/02/24 11:23:25;;;;;;;3.20;2.13;;;;;;;9.68;100.00;98059.78;4997874;28;20497;-73
2024/02/24 11:26:09;;;;;;;5.47;2.10;;;;;;;9.66;100.00;97680.09;5007606;28;20030;-75
2024/02/24 11:28:35;;;;;;;6.80;2.03;;;;;;;10.30;100.00;97856.16;5007876;28;20042;-74